Terminal Aerodrome Forecast
Issued by NWS

Home | Current Version | Previous Version | Text Only | Print | Product List | Glossary On
Versions: 1 2 3 4 5 6 7 8 9 10 11 12 13 14
462
FTUS41 KPBZ 251733
TAFZZV
TAF
KZZV 251733Z 2518/2618 23010G16KT P6SM BKN090
     FM252300 VRB04KT P6SM BKN130
     FM261300 15006KT P6SM VCSH OVC050
     FM261600 16009KT 5SM -SHRA OVC025=

USA.gov is the U.S. government's official web portal to all federal, state and local government web resources and services.